Updated05/03/2021 5:45am 
 

Nearby Airport METAR Reports

 

KVSF - Springfield, Vermont, USA
Distance from station: WSW 8mi, 12km
Updated: 03/05/2021 4:54am
Clear
Clear
 Wind from W
Wind: W 12 mph , 19 km/h, Gust: 20 mph , 31 km/h
Temperature: 16°F , -9°C
Wind Chill: 3°F , -16°C
Dew Point: -6°F , -21°C
Humidity: 37%
Barometer: 29.73 inHg , 1006.8 hPa
Clouds: Clear
Visibility: 10 miles , 16 km
2021/03/05 09:54 KVSF 050954Z AUTO 28010G17KT 10SM CLR M09/M21 A2973 RMK AO2 SLP076 T10941206
KLEB - Lebanon, New Hampshire, USA
Distance from station: N 18mi, 29km
Updated: 03/05/2021 4:53am
Clear
Clear
 Wind from NW
Wind: NW 7 mph , 11 km/h
Temperature: 18°F , -8°C
Wind Chill: 9°F , -13°C
Dew Point: 1°F , -17°C
Humidity: 49%
Barometer: 29.71 inHg , 1006.1 hPa
Clouds: Clear
Visibility: 10 miles , 16 km
2021/03/05 09:53 KLEB 050953Z AUTO 32006KT 10SM CLR M08/M17 A2971 RMK AO2 SLP072 T10781167
KRUT - Rutland State, Vermont, USA
Distance from station: WNW 31mi, 50km
Updated: 03/05/2021 4:56am
Partly cloudy
Partly cloudy
 Wind from WNW
Wind: WNW 7 mph , 11 km/h, Gust: 16 mph , 26 km/h
Temperature: 12°F , -11°C
Wind Chill: 1°F , -17°C
Dew Point: -6°F , -21°C
Humidity: 44%
Barometer: 29.76 inHg , 1007.8 hPa
Clouds: Partly cloudy
Visibility: 10 miles , 16 km
Cloud details: Partly cloudy 4200 ft
2021/03/05 09:56 KRUT 050956Z AUTO 30006G14KT 10SM SCT042 M11/M21 A2976 RMK AO2 SLP085 T11061206 FZRANO $
 
KEEN - Keene/Dillant, New Hampshire, USA
Distance from station: S 34mi, 55km
Updated: 03/05/2021 4:56am
Clear
Clear
 Wind from NW
Wind: NW 6 mph , 9 km/h
Temperature: 18°F , -8°C
Wind Chill: 10°F , -12°C
Dew Point: 1°F , -17°C
Humidity: 49%
Barometer: 29.74 inHg , 1007.1 hPa
Clouds: Clear
Visibility: 10 miles , 16 km
2021/03/05 09:56 KEEN 050956Z AUTO 32005KT 10SM CLR M08/M17 A2974 RMK AO2 SLP083 T10831167 FZRANO $
K1P1 - Plymouth, New Hampshire, USA
Distance from station: NE 42mi, 67km
Updated: 03/05/2021 5:35am
Partly cloudy
Partly cloudy
 Wind from W
Wind: W 15 mph , 24 km/h, Gust: 21 mph , 33 km/h
Temperature: 14°F , -10°C
Wind Chill: -1°F , -18°C
Dew Point: 1°F , -17°C
Humidity: 57%
Barometer: 29.69 inHg , 1005.4 hPa
Clouds: Partly cloudy
Visibility: 10 miles , 16 km
Cloud details: Partly cloudy 3100 ft
2021/03/05 10:35 K1P1 051035Z AUTO 28013G18KT 10SM SCT031 M10/M17 A2969 RMK AO2 T11001173
KAFN - Jaffrey, New Hampshire, USA
Distance from station: SSE 44mi, 70km
Updated: 03/05/2021 4:52am
Few Clouds
Few Clouds
 Wind from WNW
Wind: WNW 13 mph , 20 km/h, Gust: 21 mph , 33 km/h
Temperature: 16°F , -9°C
Wind Chill: 2°F , -17°C
Dew Point: 1°F , -17°C
Humidity: 53%
Barometer: 29.66 inHg , 1004.4 hPa
Clouds: Few Clouds
Visibility: 10 miles , 16 km
Cloud details: Few Clouds 12000 ft
2021/03/05 09:52 KAFN 050952Z AUTO 30011G18KT 280V340 10SM FEW120 M09/M17 A2966 RMK AO2 SLP064 T10891172
 
KCON - Concord, New Hampshire, USA
Distance from station: ESE 45mi, 73km
Updated: 03/05/2021 4:51am
Clear
Clear
 Wind from WNW
Wind: WNW 17 mph , 28 km/h
Temperature: 18°F , -8°C
Wind Chill: 3°F , -16°C
Dew Point: 3°F , -16°C
Humidity: 53%
Barometer: 29.69 inHg , 1005.4 hPa
Clouds: Clear
Visibility: 10 miles , 16 km
2021/03/05 09:51 KCON 050951Z AUTO 30015KT 10SM CLR M08/M16 A2969 RMK AO2 SLP059 T10781156 $
KLCI - Laconia Muni, New Hampshire, USA
Distance from station: ENE 49mi, 80km
Updated: 03/05/2021 4:56am
Few Clouds
Few Clouds
 Wind from WNW
Wind: WNW 10 mph , 17 km/h, Gust: 23 mph , 37 km/h
Temperature: 16°F , -9°C
Wind Chill: 4°F , -16°C
Dew Point: 3°F , -16°C
Humidity: 57%
Barometer: 29.68 inHg , 1005.1 hPa
Clouds: Few Clouds
Visibility: 10 miles , 16 km
Cloud details: Few Clouds 4000 ft
2021/03/05 09:56 KLCI 050956Z AUTO 29009G20KT 10SM FEW040 M09/M16 A2968 RMK AO2 SLP059 T10941161 FZRANO
KDDH - Bennington, Vermont, USA
Distance from station: SW 55mi, 89km
Updated: 03/05/2021 4:54am
Clear
Clear
 Wind from varies
Wind: varies 3 mph , 6 km/h
Temperature: 16°F , -9°C
Dew Point: -6°F , -21°C
Humidity: 37%
Barometer: 29.79 inHg , 1008.8 hPa
Clouds: Clear
Visibility: 10 miles , 16 km
2021/03/05 09:54 KDDH 050954Z AUTO VRB03KT 10SM CLR M09/M21 A2979 RMK AO2 SLP098 T10941211
 
K6B0 - Middlebury, Vermont, USA
Distance from station: NW 56mi, 90km
Updated: 03/05/2021 5:35am
Overcast
Overcast
 Wind from NNW
Wind: NNW 6 mph , 9 km/h
Temperature: 12°F , -11°C
Wind Chill: 2°F , -17°C
Dew Point: -4°F , -20°C
Humidity: 48%
Barometer: 29.79 inHg , 1008.8 hPa
Clouds: Overcast
Visibility: 10 miles , 16 km
Cloud details: Overcast 5000 ft
2021/03/05 10:35 K6B0 051035Z AUTO 34005KT 10SM OVC050 M11/M20 A2979 RMK AO2 T11071200
KMHT - Manchester, New Hampshire, USA
Distance from station: ESE 56mi, 90km
Updated: 03/05/2021 4:53am
Mostly cloudy
Mostly cloudy
 Wind from WNW
Wind: WNW 12 mph , 19 km/h, Gust: 21 mph , 33 km/h
Temperature: 21°F , -6°C
Wind Chill: 9°F , -13°C
Dew Point: 5°F , -15°C
Humidity: 49%
Barometer: 29.68 inHg , 1005.1 hPa
Clouds: Mostly cloudy
Visibility: 10 miles , 16 km
Cloud details: Mostly cloudy 10000 ft
2021/03/05 09:53 KMHT 050953Z 30010G18KT 10SM BKN100 M06/M15 A2968 RMK AO2 SLP070 T10611150
KORE - Orange, Massachusetts, USA
Distance from station: S 56mi, 90km
Updated: 03/05/2021 4:52am
Clear
Clear
 Wind from WNW
Wind: WNW 9 mph , 15 km/h
Temperature: 19°F , -7°C
Wind Chill: 8°F , -13°C
Dew Point: 1°F , -17°C
Humidity: 45%
Barometer: 29.74 inHg , 1007.1 hPa
Clouds: Clear
Visibility: 10 miles , 16 km
2021/03/05 09:52 KORE 050952Z AUTO 29008KT 10SM CLR M07/M17 A2974 RMK AO2 SLP079 T10721167
 
KMPV - Montpelier/Barre, Vermont, USA
Distance from station: N 58mi, 93km
Updated: 03/05/2021 4:51am
Clear
Clear
 Wind from NW
Wind: NW 12 mph , 19 km/h
Temperature: 9°F , -13°C
Wind Chill: -6°F , -21°C
Dew Point: 1°F , -17°C
Humidity: 72%
Barometer: 29.73 inHg , 1006.8 hPa
Clouds: Clear
Visibility: 10 miles , 16 km
2021/03/05 09:51 KMPV 050951Z AUTO 31010KT 10SM CLR M13/M17 A2973 RMK AO2 SLP091 T11281172
KASH - Nashua/Boire Fld, New Hampshire, USA
Distance from station: SE 59mi, 95km
Updated: 03/05/2021 4:56am
Mostly cloudy
Mostly cloudy
 Wind from WNW
Wind: WNW 16 mph , 26 km/h
Temperature: 21°F , -6°C
Wind Chill: 7°F , -14°C
Dew Point: 7°F , -14°C
Humidity: 54%
Barometer: 29.71 inHg , 1006.1 hPa
Clouds: Mostly cloudy
Visibility: 10 miles , 16 km
Cloud details: Mostly cloudy 11000 ft
2021/03/05 09:56 KASH 050956Z 30014KT 10SM BKN110 M06/M14 A2971 RMK AO2 SLP067 T10611144
KAQW - North Adams, Massachusetts, USA
Distance from station: SW 62mi, 99km
Updated: 03/05/2021 4:52am
Clear
Clear
 Wind from W
Wind: W 16 mph , 26 km/h
Temperature: 18°F , -8°C
Wind Chill: 3°F , -16°C
Dew Point: -4°F , -20°C
Humidity: 38%
Barometer: 29.79 inHg , 1008.8 hPa
Clouds: Clear
Visibility: 10 miles , 16 km
2021/03/05 09:52 KAQW 050952Z AUTO 27014KT 10SM CLR M08/M20 A2979 RMK AO2 PK WND 28027/0915 SLP097 T10781200
 
KGFL - Glens Falls, New York, USA
Distance from station: W 63mi, 101km
Updated: 03/05/2021 4:53am
Overcast
Overcast
 Wind from calm
Wind: Calm
Temperature: 14°F , -10°C
Dew Point: -2°F , -19°C
Humidity: 48%
Barometer: 29.84 inHg , 1010.5 hPa
Clouds: Overcast
Visibility: 10 miles , 16 km
Cloud details: Overcast 11000 ft
2021/03/05 09:53 KGFL 050953Z AUTO 00000KT 10SM OVC110 M10/M19 A2984 RMK AO2 SLP115 T11001194
KFIT - Fitchburg, Massachusetts, USA
Distance from station: SSE 65mi, 105km
Updated: 03/05/2021 4:52am
Overcast
Overcast
 Wind from NW
Wind: NW 16 mph , 26 km/h, Gust: 22 mph , 35 km/h
Temperature: 19°F , -7°C
Wind Chill: 4°F , -16°C
Dew Point: 7°F , -14°C
Humidity: 58%
Barometer: 29.72 inHg , 1006.4 hPa
Clouds: Overcast
Visibility: 10 miles , 16 km
Cloud details: Overcast 10000 ft
2021/03/05 09:52 KFIT 050952Z AUTO 31014G19KT 10SM OVC100 M07/M14 A2972 RMK AO2 SLP067 T10671144
KDAW - Rochester, New Hampshire, USA
Distance from station: E 73mi, 118km
Updated: 03/05/2021 4:51am
Overcast
Overcast
 Wind from WNW
Wind: WNW 18 mph , 30 km/h, Gust: 31 mph , 50 km/h
Temperature: 18°F , -8°C
Wind Chill: 2°F , -17°C
Dew Point: 3°F , -16°C
Humidity: 53%
Barometer: 29.63 inHg , 1003.4 hPa
Clouds: Overcast
Visibility: 10 miles , 16 km
Cloud details: Overcast 10000 ft
2021/03/05 09:51 KDAW 050951Z AUTO 30016G27KT 10SM OVC100 M08/M16 A2963 RMK AO2 PK WND 30029/0905 SLP033 T10781161
 
K1V4 - St. Johnsbury, Vermont, USA
Distance from station: NNE 74mi, 119km
Updated: 03/05/2021 1:54am
NOT Current

 
Temperature: 12°F , -11°C
Dew Point: 3°F , -16°C
Humidity: 67%
Barometer: 29.70 inHg , 1005.8 hPa
2021/03/05 06:54 K1V4 050654Z AUTO M11/M16 A2970 RMK AO1 SLP076 T11061156
KLWM - Lawrence, Massachusetts, USA
Distance from station: SE 77mi, 124km
Updated: 03/05/2021 4:54am
Overcast
Overcast
 Wind from WNW
Wind: WNW 13 mph , 20 km/h, Gust: 26 mph , 43 km/h
Temperature: 21°F , -6°C
Wind Chill: 8°F , -13°C
Dew Point: 7°F , -14°C
Humidity: 54%
Barometer: 29.70 inHg , 1005.8 hPa
Clouds: Overcast
Visibility: 10 miles , 16 km
Cloud details: Overcast 9500 ft
2021/03/05 09:54 KLWM 050954Z AUTO 30011G23KT 10SM OVC095 M06/M14 A2970 RMK AO2 PK WND 29026/0941 SLP058 T10611144



Flag Counter
free counter page views since 4/29/2009